createdAt,value
2023-08-21T06:05:53.604Z,51.111221
2023-08-21T06:06:53.697Z,51.111221
2023-08-21T08:26:04.382Z,51.111183
2023-08-21T08:27:04.198Z,51.111111
2023-08-21T08:28:04.097Z,51.111092
2023-08-21T08:29:03.997Z,51.111160
2023-08-21T08:30:05.013Z,51.111187
2023-08-21T08:31:04.034Z,51.111202
2023-08-21T08:32:04.024Z,51.111229
2023-08-21T08:33:04.142Z,51.111244
2023-08-21T08:40:00.951Z,51.111225
2023-08-21T08:41:01.082Z,51.111206
2023-08-21T08:42:00.659Z,51.111313
2023-08-21T08:43:00.687Z,51.111332
2023-08-21T08:44:00.730Z,51.111263
2023-08-21T08:45:00.786Z,51.111271
2023-08-21T08:46:00.690Z,51.111271
2023-08-21T08:47:00.949Z,51.111267
2023-08-21T08:48:00.636Z,51.111259
2023-08-21T08:49:00.672Z,51.111259
2023-08-21T08:50:00.602Z,51.111259
2023-08-21T08:51:00.586Z,51.111256
2023-08-21T08:52:21.304Z,51.111256
2023-08-21T08:53:10.072Z,51.111256
2023-08-21T08:54:02.652Z,51.111244
2023-08-21T08:55:00.484Z,51.111244
2023-08-21T09:17:41.082Z,51.111259
2023-08-21T09:18:41.169Z,51.111248
2023-08-21T09:19:41.576Z,51.111240
2023-08-21T09:20:40.728Z,51.111256
2023-08-21T09:21:40.696Z,51.111267
2023-08-21T09:22:45.007Z,51.111259
2023-08-21T09:23:40.681Z,51.111279
2023-08-21T09:25:40.530Z,51.111298
2023-08-21T10:16:02.321Z,51.111279
2023-08-21T10:17:02.365Z,51.111259
2023-08-21T10:18:02.158Z,51.111252
2023-08-21T10:19:02.287Z,51.111206
2023-08-21T10:20:02.153Z,51.111340
2023-08-21T10:21:02.040Z,51.111286
2023-08-21T10:22:02.003Z,51.111279
2023-08-21T10:23:02.017Z,51.111263
2023-08-21T10:24:02.073Z,51.111301
2023-08-21T10:25:02.018Z,51.111286
2023-08-21T10:26:02.471Z,51.111324
2023-08-21T10:27:01.894Z,51.111282
2023-08-21T10:28:01.849Z,51.111275
2023-08-21T10:29:01.917Z,51.111366
2023-08-21T10:30:01.853Z,51.111298
2023-08-21T10:31:02.033Z,51.111256
2023-08-21T10:32:01.878Z,51.111340
2023-08-21T10:33:01.859Z,51.111320
2023-08-21T10:34:01.909Z,51.111370
2023-08-21T10:35:01.837Z,51.111324
2023-08-21T10:36:01.921Z,51.111317
2023-08-21T10:37:01.912Z,51.111279
2023-08-21T10:43:16.531Z,51.111130
2023-08-21T10:44:16.546Z,51.111111
2023-08-21T10:45:16.348Z,51.111195
2023-08-21T10:57:13.554Z,51.111202
2023-08-21T10:58:13.636Z,51.111275
2023-08-21T10:59:13.266Z,51.111229
2023-08-21T11:00:13.166Z,51.111217
2023-08-21T11:01:13.196Z,51.111233
2023-08-21T11:02:13.195Z,51.111217
2023-08-21T11:03:13.178Z,51.111267
2023-08-21T11:04:13.517Z,51.111256
2023-08-21T11:05:13.336Z,51.111263
2023-08-21T11:06:13.208Z,51.111225
2023-08-21T11:07:13.218Z,51.111282
2023-08-21T11:08:13.243Z,51.111282
2023-08-21T11:09:13.199Z,51.111286
2023-08-21T11:10:13.108Z,51.111279
2023-08-21T11:11:13.180Z,51.111267
2023-08-21T11:12:13.075Z,51.111267
2023-08-21T11:13:13.099Z,51.111275
2023-08-21T11:14:13.090Z,51.111271
2023-08-21T11:15:13.324Z,51.111267
2023-08-21T11:16:13.138Z,51.111279
2023-08-21T11:17:13.053Z,51.111286
2023-08-21T11:18:13.142Z,51.111279
2023-08-21T11:19:13.069Z,51.111286
2023-08-21T11:20:13.002Z,51.111298
2023-08-21T11:21:13.072Z,51.111301
2023-08-21T11:22:13.003Z,51.111324
2023-08-21T11:23:12.986Z,51.111313
2023-08-21T11:24:13.065Z,51.111305
2023-08-21T11:25:13.005Z,51.111298
2023-08-21T11:26:20.812Z,51.111305
2023-08-21T11:27:15.018Z,51.111294
2023-08-21T11:28:12.909Z,51.111290
2023-08-21T11:29:12.953Z,51.111317
2023-08-21T11:30:12.865Z,51.111305
2023-08-21T11:31:12.891Z,51.111298
2023-08-21T11:32:12.855Z,51.111320
2023-08-21T11:33:13.033Z,51.111340
2023-08-21T11:34:23.565Z,51.111328
2023-08-21T11:35:14.998Z,51.111305
2023-08-21T11:36:12.853Z,51.111298
2023-08-21T11:37:12.922Z,51.111294
2023-08-21T11:38:12.901Z,51.111294
2023-08-21T11:39:12.990Z,51.111294
2023-08-21T11:40:12.940Z,51.111271
2023-08-21T11:41:12.917Z,51.111298
2023-08-21T11:42:12.931Z,51.111309
2023-08-21T11:43:12.870Z,51.111301
2023-08-21T11:44:12.904Z,51.111294
2023-08-21T11:45:13.174Z,51.111267
2023-08-21T11:46:12.913Z,51.111267
2023-08-21T11:47:12.893Z,51.111244
2023-08-21T11:48:12.901Z,51.111290
2023-08-21T11:49:12.853Z,51.111286
2023-08-21T11:50:12.877Z,51.111263
2023-08-21T11:51:12.858Z,51.111290
2023-08-21T11:52:12.795Z,51.111309
2023-08-21T11:53:12.819Z,51.111313
2023-08-21T11:54:12.792Z,51.111324
2023-08-21T11:55:12.870Z,51.111320
2023-08-21T11:56:13.108Z,51.111309
2023-08-21T11:57:12.862Z,51.111294
2023-08-21T11:58:12.747Z,51.111305
2023-08-21T11:59:12.845Z,51.111317
2023-08-21T12:00:12.768Z,51.111328
2023-08-21T12:01:12.855Z,51.111313
2023-08-21T12:02:12.734Z,51.111317
2023-08-21T12:03:12.817Z,51.111336
2023-08-21T12:04:12.778Z,51.111347
2023-08-21T12:05:12.710Z,51.111317
2023-08-21T12:06:55.104Z,51.111305
2023-08-21T12:07:12.616Z,51.111298
2023-08-21T12:08:12.995Z,51.111305
2023-08-21T12:09:12.740Z,51.111324
2023-08-21T12:10:12.610Z,51.111336
2023-08-21T12:11:12.636Z,51.111324
2023-08-21T12:12:12.613Z,51.111294
2023-08-21T12:13:12.579Z,51.111309
2023-08-21T12:14:12.516Z,51.111320
2023-08-21T12:15:12.573Z,51.111343
2023-08-21T12:16:12.577Z,51.111347
2023-08-21T12:17:12.576Z,51.111324
2023-08-21T12:18:12.570Z,51.111301
2023-08-21T12:19:12.541Z,51.111301
2023-08-21T12:20:12.550Z,51.111294
2023-08-21T12:21:12.544Z,51.111294
2023-08-21T12:22:12.664Z,51.111301
2023-08-21T12:23:12.677Z,51.111332
2023-08-21T12:24:12.633Z,51.111317
2023-08-21T12:25:12.636Z,51.111320
2023-08-21T12:26:12.617Z,51.111320
2023-08-21T12:27:12.581Z,51.111328
2023-08-21T12:28:12.656Z,51.111282
2023-08-21T12:29:12.581Z,51.111279
2023-08-21T12:30:12.808Z,51.111286
2023-08-21T12:31:12.702Z,51.111290
2023-08-21T12:32:12.655Z,51.111298
2023-08-21T12:33:22.586Z,51.111263
2023-08-21T12:34:14.464Z,51.111267
2023-08-21T12:35:12.627Z,51.111256
2023-08-21T12:36:12.708Z,51.111298
2023-08-21T12:37:12.674Z,51.111301
2023-08-21T12:38:12.662Z,51.111309
2023-08-21T12:39:12.519Z,51.111294
2023-08-21T12:40:12.486Z,51.111279
2023-08-21T12:41:12.711Z,51.111286
2023-08-21T12:42:12.562Z,51.111279
2023-08-21T12:43:12.623Z,51.111290
2023-08-21T12:44:12.582Z,51.111294
2023-08-21T12:45:12.593Z,51.111290
2023-08-21T12:46:12.517Z,51.111271
2023-08-21T12:47:12.739Z,51.111263
2023-08-21T12:48:12.697Z,51.111263
2023-08-21T12:49:12.546Z,51.111248
2023-08-21T12:50:12.489Z,51.111248
2023-08-21T12:51:12.491Z,51.111248
2023-08-21T12:52:12.845Z,51.111271
2023-08-21T12:53:12.498Z,51.111256
2023-08-21T12:54:12.454Z,51.111248
2023-08-21T12:55:12.332Z,51.111244
2023-08-21T12:56:13.142Z,51.111271
2023-08-21T12:57:12.333Z,51.111282
2023-08-21T12:58:12.265Z,51.111267
2023-08-21T12:59:12.442Z,51.111279
2023-08-21T13:00:12.306Z,51.111275
2023-08-21T13:01:12.332Z,51.111275
2023-08-21T13:02:12.307Z,51.111271
2023-08-21T13:03:12.450Z,51.111259
2023-08-21T13:04:12.345Z,51.111263
2023-08-21T13:05:12.416Z,51.111271
2023-08-21T13:06:12.366Z,51.111263
2023-08-21T13:07:12.420Z,51.111248
2023-08-21T13:08:12.591Z,51.111252
2023-08-21T13:09:12.279Z,51.111252
2023-08-21T13:10:12.299Z,51.111256
2023-08-21T13:11:12.366Z,51.111263
2023-08-21T13:12:12.297Z,51.111256
2023-08-21T13:13:12.608Z,51.111244
2023-08-21T13:14:12.267Z,51.111282
2023-08-21T13:15:12.377Z,51.111275
2023-08-21T13:16:12.297Z,51.111244
2023-08-21T13:17:12.327Z,51.111275
2023-08-21T13:18:12.275Z,51.111309
2023-08-21T13:19:12.383Z,51.111294
2023-08-21T13:20:12.330Z,51.111282
2023-08-21T13:21:12.281Z,51.111305
2023-08-21T13:22:12.216Z,51.111320
2023-08-21T13:23:12.263Z,51.111298
2023-08-21T13:24:12.247Z,51.111294
2023-08-21T13:25:12.276Z,51.111286
2023-08-21T13:26:12.221Z,51.111286
2023-08-21T13:27:12.192Z,51.111275
2023-08-21T13:28:12.085Z,51.111275
2023-08-21T13:29:12.097Z,51.111271
2023-08-21T13:30:12.055Z,51.111256
2023-08-21T13:31:12.259Z,51.111275
2023-08-21T13:32:12.042Z,51.111282
2023-08-21T13:33:13.038Z,51.111275
2023-08-21T13:34:12.081Z,51.111282
2023-08-21T13:35:12.110Z,51.111301
2023-08-21T13:36:12.033Z,51.111286
2023-08-21T13:37:12.085Z,51.111252
2023-08-21T13:38:12.234Z,51.111256
2023-08-21T13:39:12.118Z,51.111279
2023-08-21T13:40:13.400Z,51.111259
2023-08-21T13:41:13.114Z,51.111259
2023-08-21T13:42:12.265Z,51.111252
2023-08-21T13:43:12.128Z,51.111267
2023-08-21T13:44:12.333Z,51.111233
2023-08-21T13:45:12.054Z,51.111252
2023-08-21T13:46:12.047Z,51.111237
2023-08-21T13:47:12.132Z,51.111237
2023-08-21T13:48:12.042Z,51.111225
2023-08-21T13:49:11.995Z,51.111263
2023-08-21T13:50:12.066Z,51.111225
2023-08-21T13:51:12.034Z,51.111187
2023-08-21T13:52:11.963Z,51.111195
2023-08-21T13:53:12.140Z,51.111210
2023-08-21T13:54:12.005Z,51.111252
2023-08-21T13:55:12.069Z,51.111237
2023-08-21T13:56:12.063Z,51.111252
2023-08-21T13:57:11.963Z,51.111225
2023-08-21T13:58:12.096Z,51.111225
2023-08-21T13:59:12.088Z,51.111298
2023-08-21T14:00:12.248Z,51.111229
2023-08-21T14:01:12.046Z,51.111187
2023-08-21T14:02:11.951Z,51.111210
2023-08-21T14:03:12.087Z,51.111225
2023-08-21T14:04:11.984Z,51.111267
2023-08-21T14:05:12.453Z,51.111279
2023-08-21T14:06:11.828Z,51.111256
2023-08-21T14:07:11.800Z,51.111248
2023-08-21T14:08:11.758Z,51.111320
2023-08-21T14:09:11.844Z,51.111328
2023-08-21T14:10:11.790Z,51.111275
2023-08-21T14:11:11.889Z,51.111244
2023-08-21T14:12:11.775Z,51.111217
2023-08-21T14:13:11.768Z,51.111401
2023-08-21T14:14:11.857Z,51.111336
2023-08-21T14:15:12.049Z,51.111282
2023-08-21T14:16:11.839Z,51.111191
2023-08-21T14:17:11.827Z,51.111225
2023-08-21T14:18:12.139Z,51.111176
2023-08-21T14:19:11.911Z,51.111191
2023-08-21T14:20:12.004Z,51.111202
2023-08-21T14:21:11.907Z,51.111198
2023-08-21T14:22:11.878Z,51.111176
2023-08-21T14:23:11.859Z,51.111259
2023-08-21T14:24:11.911Z,51.111191
2023-08-21T14:25:11.839Z,51.111221
2023-08-21T14:26:11.929Z,51.111298
2023-08-21T14:27:11.782Z,51.111263
2023-08-21T14:28:11.841Z,51.111237
2023-08-21T14:29:12.072Z,51.111240
2023-08-21T14:30:11.948Z,51.111225
2023-08-21T14:31:11.841Z,51.111240
2023-08-21T14:32:11.915Z,51.111221
2023-08-21T14:33:11.858Z,51.111214
2023-08-21T14:34:12.057Z,51.111248
2023-08-21T14:35:11.806Z,51.111237
2023-08-21T14:36:11.739Z,51.111248
2023-08-21T14:37:11.745Z,51.111221
2023-08-21T14:38:12.102Z,51.111225
2023-08-21T14:39:11.649Z,51.111225
2023-08-21T14:40:11.624Z,51.111206
2023-08-21T14:41:11.597Z,51.111214
2023-08-21T14:42:12.724Z,51.111217
2023-08-21T14:43:11.598Z,51.111195
2023-08-21T14:44:11.707Z,51.111202
2023-08-21T14:45:11.667Z,51.111225
2023-08-21T14:46:12.009Z,51.111240
2023-08-21T14:47:11.768Z,51.111217
2023-08-21T14:48:11.750Z,51.111229
2023-08-21T14:49:11.747Z,51.111248
2023-08-21T14:50:11.652Z,51.111237
2023-08-21T14:51:12.074Z,51.111244
2023-08-21T14:52:11.726Z,51.111229
2023-08-21T14:53:11.760Z,51.111237
2023-08-21T14:54:11.618Z,51.111221
2023-08-21T14:55:11.706Z,51.111221
2023-08-21T14:56:11.645Z,51.111271
2023-08-21T14:57:11.832Z,51.111240
2023-08-21T14:58:11.653Z,51.111256
2023-08-21T14:59:11.696Z,51.111240
2023-08-21T15:00:11.606Z,51.111233
2023-08-21T15:01:11.638Z,51.111252
2023-08-21T15:02:11.925Z,51.111244
2023-08-21T15:03:11.630Z,51.111248
2023-08-21T15:04:11.736Z,51.111240
2023-08-21T15:05:11.478Z,51.111244
2023-08-21T15:06:11.491Z,51.111259
2023-08-21T15:07:11.552Z,51.111244
2023-08-21T15:08:11.474Z,51.111237
2023-08-21T15:09:11.462Z,51.111233
2023-08-21T15:10:11.474Z,51.111244
2023-08-21T15:11:11.530Z,51.111256
2023-08-21T15:12:11.422Z,51.111248
2023-08-21T15:13:11.457Z,51.111259
2023-08-21T15:14:11.532Z,51.111275
2023-08-21T15:15:11.577Z,51.111275
2023-08-21T15:16:11.702Z,51.111279
2023-08-21T15:17:18.956Z,51.111271
2023-08-21T15:18:13.539Z,51.111256
2023-08-21T15:19:11.620Z,51.111259
2023-08-21T15:20:11.725Z,51.111229
2023-08-21T15:21:11.533Z,51.111237
2023-08-21T15:22:11.620Z,51.111263
2023-08-21T15:23:11.568Z,51.111240
2023-08-21T15:24:11.660Z,51.111187
2023-08-21T15:25:11.816Z,51.111248
2023-08-21T15:26:11.607Z,51.111286
2023-08-21T15:27:11.449Z,51.111256
2023-08-21T15:28:11.409Z,51.111195
2023-08-21T15:29:11.467Z,51.111221
2023-08-21T15:30:11.466Z,51.111191
2023-08-21T15:31:11.471Z,51.111202
2023-08-21T15:32:11.516Z,51.111217
2023-08-21T15:33:11.393Z,51.111198
2023-08-21T15:45:17.484Z,51.111244
2023-08-21T15:46:17.379Z,51.111206
2023-08-21T15:47:36.932Z,51.111176
2023-08-21T15:48:18.232Z,51.111187
2023-08-21T15:49:17.523Z,51.111240
2023-08-21T15:50:17.450Z,51.111248
2023-08-21T15:51:17.225Z,51.111248
2023-08-21T15:52:17.204Z,51.111252
2023-08-21T15:53:17.171Z,51.111244
2023-08-21T15:54:17.162Z,51.111229
2023-08-21T15:55:17.193Z,51.111229
2023-08-21T15:56:17.227Z,51.111240
2023-08-21T15:57:17.221Z,51.111256
2023-08-21T15:58:17.177Z,51.111263
2023-08-21T15:59:17.142Z,51.111263
2023-08-21T16:00:17.503Z,51.111252
2023-08-21T16:01:17.232Z,51.111240
2023-08-21T16:02:17.185Z,51.111252
2023-08-21T16:03:17.217Z,51.111252
2023-08-21T16:04:17.192Z,51.111263
2023-08-21T16:05:17.132Z,51.111271
2023-08-21T16:06:17.242Z,51.111263
2023-08-21T16:07:17.136Z,51.111248
2023-08-21T16:08:17.209Z,51.111248
2023-08-21T16:09:19.192Z,51.111256
2023-08-21T16:10:17.166Z,51.111267
2023-08-21T16:11:17.456Z,51.111259
2023-08-21T16:12:17.090Z,51.111279
2023-08-21T16:13:16.985Z,51.111267
2023-08-21T16:14:16.988Z,51.111259
2023-08-21T16:15:17.018Z,51.111271
2023-08-21T16:16:17.078Z,51.111259
2023-08-21T16:17:16.976Z,51.111248
2023-08-21T16:18:17.001Z,51.111271
2023-08-21T16:19:17.303Z,51.111282
2023-08-21T16:20:16.955Z,51.111275
2023-08-21T16:21:16.922Z,51.111286
2023-08-21T16:22:16.960Z,51.111271
2023-08-21T16:23:16.930Z,51.111275
2023-08-21T16:24:16.946Z,51.111267
2023-08-21T16:25:17.007Z,51.111237
2023-08-21T16:26:17.037Z,51.111229
2023-08-21T16:27:48.289Z,51.111267
2023-08-21T16:28:18.593Z,51.111256
2023-08-21T16:29:18.917Z,51.111263
2023-08-21T16:30:17.018Z,51.111252
2023-08-21T16:31:17.095Z,51.111244
2023-08-21T16:32:17.011Z,51.111225
2023-08-21T16:33:17.095Z,51.111240
2023-08-21T16:34:16.931Z,51.111229
2023-08-21T16:35:16.950Z,51.111244
2023-08-21T16:36:16.987Z,51.111256
2023-08-21T16:37:16.955Z,51.111240
2023-08-21T16:38:17.068Z,51.111252
2023-08-21T16:39:16.998Z,51.111271
2023-08-21T16:40:17.201Z,51.111233
2023-08-21T16:41:16.918Z,51.111282
2023-08-21T16:42:16.955Z,51.111290
2023-08-21T16:43:16.973Z,51.111279
2023-08-21T16:44:16.919Z,51.111259
2023-08-21T16:45:16.968Z,51.111240
2023-08-21T16:46:16.993Z,51.111248
2023-08-21T16:47:16.856Z,51.111233
2023-08-21T16:48:16.938Z,51.111233
2023-08-21T16:49:16.986Z,51.111244
2023-08-21T16:50:17.018Z,51.111233
2023-08-21T16:51:17.203Z,51.111244
2023-08-21T16:53:23.314Z,51.111229
2023-08-21T16:54:18.963Z,51.111271
2023-08-21T16:55:16.854Z,51.111282
2023-08-21T16:56:16.922Z,51.111263
2023-08-21T16:57:16.827Z,51.111252
2023-08-21T16:58:16.736Z,51.111225
2023-08-21T16:59:16.783Z,51.111202
2023-08-21T17:00:16.738Z,51.111225
2023-08-21T17:46:49.390Z,51.111286
2023-08-21T17:47:49.367Z,51.111256
2023-08-21T17:48:49.068Z,51.111259
2023-08-21T17:49:50.123Z,51.111229
2023-08-21T17:50:48.974Z,51.111259
2023-08-21T17:51:49.363Z,51.111244
2023-08-21T17:52:49.096Z,51.111271
2023-08-21T17:53:49.318Z,51.111275
2023-08-21T17:54:48.973Z,51.111259
2023-08-21T17:55:49.280Z,51.111252
2023-08-21T17:56:48.920Z,51.111271
2023-08-21T17:57:48.958Z,51.111282
2023-08-21T17:58:48.947Z,51.111290
2023-08-21T17:59:48.925Z,51.111282
2023-08-21T18:00:49.088Z,51.111244
2023-08-21T18:01:48.970Z,51.111282
2023-08-21T18:02:48.993Z,51.111271
2023-08-21T18:03:48.875Z,51.111275
2023-08-21T18:04:48.881Z,51.111290
2023-08-21T18:05:49.197Z,51.111286
2023-08-21T18:06:49.696Z,51.111298
2023-08-21T18:07:48.940Z,51.111309
2023-08-21T18:08:49.016Z,51.111271
2023-08-21T18:09:49.036Z,51.111244
2023-08-21T18:10:51.718Z,51.111279
2023-08-21T18:11:50.294Z,51.111298
2023-08-21T18:12:49.452Z,51.111328
2023-08-21T18:13:48.915Z,51.111324
2023-08-21T18:14:48.968Z,51.111298
2023-08-21T18:15:48.883Z,51.111301
2023-08-21T18:16:48.869Z,51.111248
2023-08-21T18:17:49.114Z,51.111248
2023-08-21T18:18:49.136Z,51.111263
2023-08-21T18:19:48.834Z,51.111290
2023-08-21T18:20:48.851Z,51.111286
2023-08-21T18:21:48.894Z,51.111328
2023-08-21T18:22:48.868Z,51.111256
2023-08-21T18:23:48.836Z,51.111259
2023-08-21T18:24:48.808Z,51.111271
2023-08-21T18:25:49.001Z,51.111267
2023-08-21T18:26:48.852Z,51.111259
2023-08-21T18:27:48.878Z,51.111279
2023-08-21T18:28:48.782Z,51.111229
2023-08-21T18:29:49.606Z,51.111298
2023-08-21T18:30:49.036Z,51.111275
2023-08-21T18:31:48.829Z,51.111275
2023-08-21T18:32:49.045Z,51.111290
2023-08-21T18:33:48.949Z,51.111282
2023-08-21T18:34:48.673Z,51.111290
2023-08-21T18:35:48.765Z,51.111275
2023-08-21T18:36:48.794Z,51.111290
2023-08-21T18:37:48.695Z,51.111340
2023-08-21T18:38:48.784Z,51.111313
2023-08-21T18:39:48.754Z,51.111313
2023-08-21T18:40:49.629Z,51.111301
2023-08-21T18:41:49.097Z,51.111320
2023-08-21T18:42:48.585Z,51.111355
2023-08-21T18:43:48.996Z,51.111320
2023-08-21T18:44:48.754Z,51.111282
2023-08-21T18:45:48.815Z,51.111313
2023-08-21T18:46:48.896Z,51.111294
2023-08-21T18:47:48.802Z,51.111313
2023-08-21T18:48:49.025Z,51.111324
2023-08-21T18:49:48.765Z,51.111301
2023-08-21T18:50:48.713Z,51.111279
2023-08-21T18:51:48.686Z,51.111309
2023-08-21T18:52:49.803Z,51.111301
2023-08-21T18:53:49.037Z,51.111286
2023-08-21T18:54:48.703Z,51.111336
2023-08-21T18:55:48.804Z,51.111347
2023-08-21T19:00:32.393Z,51.111221
2023-08-21T19:01:32.152Z,51.111176
2023-08-21T19:02:32.075Z,51.111202
2023-08-21T19:03:32.021Z,51.111252
2023-08-21T19:04:32.268Z,51.111244
2023-08-21T19:05:32.079Z,51.111248
2023-08-21T19:06:31.943Z,51.111244
2023-08-21T19:07:32.110Z,51.111244
2023-08-21T19:08:32.019Z,51.111248
2023-08-21T19:09:31.927Z,51.111248
2023-08-21T19:10:32.368Z,51.111275
2023-08-21T19:11:50.572Z,51.111248
2023-08-21T19:12:31.841Z,51.111271
